createdAt,value
2018-12-13T21:18:19.163Z,1024.79
2018-12-13T21:19:29.255Z,1024.76
2018-12-13T21:20:40.112Z,1024.79
2018-12-13T21:21:49.944Z,1024.78
2018-12-13T21:22:59.782Z,1024.75
2018-12-13T21:24:09.622Z,1024.8
2018-12-13T21:25:19.451Z,1024.8
2018-12-13T21:26:29.025Z,1024.82
2018-12-13T21:27:38.865Z,1024.84
2018-12-13T21:28:48.430Z,1024.89
2018-12-13T21:29:58.524Z,1024.9
2018-12-13T21:31:07.904Z,1024.87
2018-12-13T21:32:17.997Z,1024.87
2018-12-13T21:33:27.835Z,1024.89
2018-12-13T21:34:37.672Z,1024.91
2018-12-13T21:35:47.510Z,1024.87
2018-12-13T21:36:57.342Z,1024.88
2018-12-13T21:38:07.435Z,1024.87
2018-12-13T21:39:16.744Z,1024.93
2018-12-13T21:40:26.845Z,1024.85
2018-12-13T21:41:36.413Z,1024.83
2018-12-13T21:42:46.506Z,1024.82
2018-12-13T21:43:56.328Z,1024.85
2018-12-13T21:45:05.646Z,1024.84
2018-12-13T21:46:15.218Z,1024.85
2018-12-13T21:47:25.046Z,1024.86
2018-12-13T21:48:34.612Z,1024.79
2018-12-13T21:49:44.444Z,1024.89
2018-12-13T21:50:54.274Z,1024.87
2018-12-13T21:52:03.853Z,1024.83
2018-12-13T21:53:13.698Z,1024.81
2018-12-13T21:54:23.268Z,1024.8
2018-12-13T21:55:32.833Z,1024.85
2018-12-13T21:56:42.664Z,1024.82
2018-12-13T21:57:52.761Z,1024.85
2018-12-13T21:59:03.759Z,1024.86
2018-12-13T22:00:13.788Z,1024.83
2018-12-13T22:01:23.621Z,1024.79
2018-12-13T22:02:33.716Z,1024.76
2018-12-13T22:03:43.296Z,1024.77
2018-12-13T22:04:53.390Z,1024.73
2018-12-13T22:06:03.215Z,1024.73
2018-12-13T22:07:13.045Z,1024.73
2018-12-13T22:08:22.633Z,1024.75
2018-12-13T22:09:32.725Z,1024.75
2018-12-13T22:10:42.555Z,1024.71
2018-12-13T22:11:52.999Z,1024.7
2018-12-13T22:13:02.571Z,1024.74
2018-12-13T22:14:12.138Z,1024.73
2018-12-13T22:15:21.710Z,1024.71
2018-12-13T22:16:31.273Z,1024.73
2018-12-13T22:17:41.368Z,1024.73
2018-12-13T22:18:50.947Z,1024.73
2018-12-13T22:20:00.776Z,1024.74
2018-12-13T22:21:10.351Z,1024.75
2018-12-13T22:22:20.459Z,1024.76
2018-12-13T22:23:30.553Z,1024.79
2018-12-13T22:24:40.387Z,1024.85
2018-12-13T22:25:49.957Z,1024.88
2018-12-13T22:26:59.789Z,1024.91
2018-12-13T22:28:09.630Z,1024.92
2018-12-13T22:29:19.725Z,1024.91
2018-12-13T22:30:29.045Z,1024.95
2018-12-13T22:31:38.896Z,1024.96
2018-12-13T22:32:47.940Z,1024.98
2018-12-13T22:33:57.504Z,1024.96
2018-12-13T22:35:07.328Z,1024.96
2018-12-13T22:36:17.159Z,1024.95
2018-12-13T22:37:26.987Z,1024.97
2018-12-13T22:38:36.818Z,1024.99
2018-12-13T22:39:46.388Z,1025
2018-12-13T22:40:56.485Z,1025.01
2018-12-13T22:42:06.991Z,1024.95
2018-12-13T22:43:20.510Z,1024.97
2018-12-13T22:44:30.579Z,1024.94
2018-12-13T22:45:40.685Z,1024.95
2018-12-13T22:46:50.259Z,1024.97
2018-12-13T22:47:59.837Z,1024.93
2018-12-13T22:49:09.667Z,1024.95
2018-12-13T22:50:19.761Z,1024.88
2018-12-13T22:51:29.850Z,1024.89
2018-12-13T22:52:39.685Z,1024.9
2018-12-13T22:53:49.514Z,1024.92
2018-12-13T22:54:59.613Z,1024.89
2018-12-13T22:56:09.720Z,1024.88
2018-12-13T22:57:19.811Z,1024.94
2018-12-13T22:58:29.965Z,1024.9
2018-12-13T22:59:39.537Z,1024.96
2018-12-13T23:00:49.418Z,1024.93
2018-12-13T23:01:59.243Z,1024.96
2018-12-13T23:03:09.100Z,1024.96
2018-12-13T23:04:18.668Z,1025.03
2018-12-13T23:05:28.769Z,1025.03
2018-12-13T23:06:38.857Z,1025
2018-12-13T23:07:48.425Z,1025.01
2018-12-13T23:08:57.730Z,1025.02
2018-12-13T23:10:07.803Z,1025.04
2018-12-13T23:11:17.629Z,1025.05
2018-12-13T23:12:33.192Z,1025.06
2018-12-13T23:13:42.764Z,1025.04
2018-12-13T23:14:52.385Z,1024.99
2018-12-13T23:16:02.246Z,1024.99
2018-12-13T23:17:12.081Z,1025.05
2018-12-13T23:18:21.964Z,1025
2018-12-13T23:19:31.793Z,1025.04
2018-12-13T23:20:41.369Z,1025.02
2018-12-13T23:21:51.463Z,1025.04
2018-12-13T23:23:01.293Z,1025.02
2018-12-13T23:24:10.862Z,1024.99
2018-12-13T23:25:20.164Z,1025.02
2018-12-13T23:26:30.253Z,1025.02
2018-12-13T23:27:40.350Z,1025.02
2018-12-13T23:28:50.748Z,1025.02
2018-12-13T23:30:00.613Z,1025.05
2018-12-13T23:31:10.448Z,1024.94
2018-12-13T23:32:20.536Z,1024.95
2018-12-13T23:33:30.363Z,1024.95
2018-12-13T23:34:40.201Z,1024.93
2018-12-13T23:35:49.773Z,1024.96
2018-12-13T23:36:59.339Z,1024.99
2018-12-13T23:38:08.393Z,1024.94
2018-12-13T23:39:17.954Z,1024.93
2018-12-13T23:40:27.516Z,1024.89
2018-12-13T23:41:39.263Z,1024.95
2018-12-13T23:42:49.089Z,1024.87
